sensor_id;sensor_type;location;lat;lon;timestamp;P1;durP1;ratioP1;P2;durP2;ratioP2
58659;SDS011;44429;45.110;20.622;2022-11-15T00:00:43;0.55;;;0.30;;
58659;SDS011;44429;45.110;20.622;2022-11-15T00:03:10;2.95;;;0.88;;
58659;SDS011;44429;45.110;20.622;2022-11-15T00:05:36;1.08;;;0.43;;
58659;SDS011;44429;45.110;20.622;2022-11-15T00:08:02;3.35;;;1.13;;
58659;SDS011;44429;45.110;20.622;2022-11-15T00:10:28;1.42;;;0.47;;
58659;SDS011;44429;45.110;20.622;2022-11-15T00:12:54;3.25;;;0.80;;
58659;SDS011;44429;45.110;20.622;2022-11-15T00:15:20;2.65;;;0.82;;
58659;SDS011;44429;45.110;20.622;2022-11-15T00:17:49;2.60;;;1.20;;
58659;SDS011;44429;45.110;20.622;2022-11-15T00:20:16;3.15;;;1.02;;
58659;SDS011;44429;45.110;20.622;2022-11-15T00:22:42;2.28;;;0.75;;
58659;SDS011;44429;45.110;20.622;2022-11-15T00:25:08;4.07;;;1.33;;
58659;SDS011;44429;45.110;20.622;2022-11-15T00:27:35;1.83;;;1.40;;
58659;SDS011;44429;45.110;20.622;2022-11-15T00:30:01;1.38;;;0.85;;
58659;SDS011;44429;45.110;20.622;2022-11-15T00:32:30;1.75;;;0.68;;
58659;SDS011;44429;45.110;20.622;2022-11-15T00:34:57;2.13;;;0.95;;
58659;SDS011;44429;45.110;20.622;2022-11-15T00:37:23;4.25;;;1.23;;
58659;SDS011;44429;45.110;20.622;2022-11-15T00:39:49;6.32;;;1.02;;
58659;SDS011;44429;45.110;20.622;2022-11-15T00:42:15;1.88;;;1.13;;
58659;SDS011;44429;45.110;20.622;2022-11-15T00:44:41;3.30;;;0.90;;
58659;SDS011;44429;45.110;20.622;2022-11-15T00:47:07;1.63;;;0.70;;
58659;SDS011;44429;45.110;20.622;2022-11-15T00:49:33;0.45;;;0.15;;
58659;SDS011;44429;45.110;20.622;2022-11-15T00:51:59;0.50;;;0.22;;
58659;SDS011;44429;45.110;20.622;2022-11-15T00:54:25;2.55;;;0.68;;
58659;SDS011;44429;45.110;20.622;2022-11-15T00:56:51;0.85;;;0.35;;
58659;SDS011;44429;45.110;20.622;2022-11-15T00:59:17;2.53;;;0.70;;
58659;SDS011;44429;45.110;20.622;2022-11-15T01:01:43;1.02;;;0.35;;
58659;SDS011;44429;45.110;20.622;2022-11-15T01:04:10;2.13;;;0.75;;
58659;SDS011;44429;45.110;20.622;2022-11-15T01:06:36;3.38;;;1.25;;
58659;SDS011;44429;45.110;20.622;2022-11-15T01:09:02;2.95;;;1.35;;
58659;SDS011;44429;45.110;20.622;2022-11-15T01:11:28;1.67;;;0.75;;
58659;SDS011;44429;45.110;20.622;2022-11-15T01:13:54;2.50;;;1.00;;
58659;SDS011;44429;45.110;20.622;2022-11-15T01:16:21;2.58;;;0.75;;
58659;SDS011;44429;45.110;20.622;2022-11-15T01:18:47;4.75;;;0.63;;
58659;SDS011;44429;45.110;20.622;2022-11-15T01:21:14;1.55;;;0.60;;
58659;SDS011;44429;45.110;20.622;2022-11-15T01:23:41;0.80;;;0.30;;
58659;SDS011;44429;45.110;20.622;2022-11-15T01:26:09;1.85;;;0.50;;
58659;SDS011;44429;45.110;20.622;2022-11-15T01:28:36;6.63;;;1.08;;
58659;SDS011;44429;45.110;20.622;2022-11-15T01:31:04;1.60;;;0.70;;
58659;SDS011;44429;45.110;20.622;2022-11-15T01:33:30;1.35;;;0.65;;
58659;SDS011;44429;45.110;20.622;2022-11-15T01:35:56;0.85;;;0.32;;
58659;SDS011;44429;45.110;20.622;2022-11-15T01:38:22;1.58;;;0.70;;
58659;SDS011;44429;45.110;20.622;2022-11-15T01:40:49;1.40;;;0.73;;
58659;SDS011;44429;45.110;20.622;2022-11-15T01:45:49;0.40;;;0.20;;
58659;SDS011;44429;45.110;20.622;2022-11-15T01:48:17;2.22;;;0.52;;
58659;SDS011;44429;45.110;20.622;2022-11-15T01:50:43;2.63;;;0.80;;
58659;SDS011;44429;45.110;20.622;2022-11-15T01:53:09;4.13;;;0.98;;
58659;SDS011;44429;45.110;20.622;2022-11-15T01:55:35;1.50;;;0.60;;
58659;SDS011;44429;45.110;20.622;2022-11-15T01:58:02;1.02;;;0.43;;
58659;SDS011;44429;45.110;20.622;2022-11-15T02:00:30;2.30;;;0.85;;
58659;SDS011;44429;45.110;20.622;2022-11-15T02:02:56;1.73;;;0.60;;
58659;SDS011;44429;45.110;20.622;2022-11-15T02:05:22;2.00;;;0.35;;
58659;SDS011;44429;45.110;20.622;2022-11-15T02:07:48;1.17;;;0.38;;
58659;SDS011;44429;45.110;20.622;2022-11-15T02:10:19;0.38;;;0.10;;
58659;SDS011;44429;45.110;20.622;2022-11-15T02:12:45;0.77;;;0.32;;
58659;SDS011;44429;45.110;20.622;2022-11-15T02:15:12;2.25;;;0.80;;
58659;SDS011;44429;45.110;20.622;2022-11-15T02:23:00;1.20;;;0.57;;
58659;SDS011;44429;45.110;20.622;2022-11-15T02:30:59;0.77;;;0.30;;
58659;SDS011;44429;45.110;20.622;2022-11-15T02:36:18;2.67;;;0.60;;
58659;SDS011;44429;45.110;20.622;2022-11-15T02:38:56;2.58;;;0.93;;
58659;SDS011;44429;45.110;20.622;2022-11-15T02:44:07;0.90;;;0.50;;
58659;SDS011;44429;45.110;20.622;2022-11-15T02:46:37;0.82;;;0.40;;
58659;SDS011;44429;45.110;20.622;2022-11-15T02:49:24;1.80;;;0.93;;
58659;SDS011;44429;45.110;20.622;2022-11-15T02:51:51;0.25;;;0.13;;
58659;SDS011;44429;45.110;20.622;2022-11-15T02:54:20;0.80;;;0.32;;
58659;SDS011;44429;45.110;20.622;2022-11-15T02:56:47;1.42;;;0.50;;
58659;SDS011;44429;45.110;20.622;2022-11-15T03:09:39;0.40;;;0.20;;
58659;SDS011;44429;45.110;20.622;2022-11-15T03:14:37;4.90;;;0.30;;
58659;SDS011;44429;45.110;20.622;2022-11-15T03:19:43;1.63;;;0.15;;
58659;SDS011;44429;45.110;20.622;2022-11-15T03:22:11;1.50;;;0.57;;
58659;SDS011;44429;45.110;20.622;2022-11-15T03:24:38;4.03;;;1.40;;
58659;SDS011;44429;45.110;20.622;2022-11-15T03:27:05;2.58;;;0.60;;
58659;SDS011;44429;45.110;20.622;2022-11-15T03:29:33;1.67;;;0.52;;
58659;SDS011;44429;45.110;20.622;2022-11-15T03:32:12;1.70;;;0.63;;
58659;SDS011;44429;45.110;20.622;2022-11-15T03:40:14;1.85;;;1.00;;
58659;SDS011;44429;45.110;20.622;2022-11-15T03:42:48;1.30;;;0.45;;
58659;SDS011;44429;45.110;20.622;2022-11-15T03:45:19;1.00;;;0.38;;
58659;SDS011;44429;45.110;20.622;2022-11-15T03:47:48;1.25;;;0.40;;
58659;SDS011;44429;45.110;20.622;2022-11-15T03:50:17;1.45;;;0.45;;
58659;SDS011;44429;45.110;20.622;2022-11-15T03:52:44;0.80;;;0.38;;
58659;SDS011;44429;45.110;20.622;2022-11-15T03:55:12;0.68;;;0.20;;
58659;SDS011;44429;45.110;20.622;2022-11-15T03:57:39;22.70;;;0.68;;
58659;SDS011;44429;45.110;20.622;2022-11-15T04:00:05;1.83;;;0.43;;
58659;SDS011;44429;45.110;20.622;2022-11-15T04:02:31;0.75;;;0.20;;
58659;SDS011;44429;45.110;20.622;2022-11-15T04:04:57;2.00;;;1.13;;
58659;SDS011;44429;45.110;20.622;2022-11-15T04:07:23;2.30;;;0.77;;
58659;SDS011;44429;45.110;20.622;2022-11-15T04:09:49;0.40;;;0.10;;
58659;SDS011;44429;45.110;20.622;2022-11-15T04:12:28;1.30;;;0.85;;
58659;SDS011;44429;45.110;20.622;2022-11-15T04:14:58;1.50;;;1.00;;
58659;SDS011;44429;45.110;20.622;2022-11-15T04:17:46;1.17;;;0.20;;
58659;SDS011;44429;45.110;20.622;2022-11-15T04:20:14;0.05;;;0.00;;
58659;SDS011;44429;45.110;20.622;2022-11-15T04:22:59;1.75;;;0.28;;
58659;SDS011;44429;45.110;20.622;2022-11-15T04:25:44;1.05;;;0.50;;
58659;SDS011;44429;45.110;20.622;2022-11-15T04:28:11;0.13;;;0.05;;
58659;SDS011;44429;45.110;20.622;2022-11-15T04:30:37;1.35;;;0.50;;
58659;SDS011;44429;45.110;20.622;2022-11-15T04:33:03;3.28;;;0.82;;
58659;SDS011;44429;45.110;20.622;2022-11-15T04:35:30;0.88;;;0.28;;
58659;SDS011;44429;45.110;20.622;2022-11-15T04:37:56;0.40;;;0.20;;
58659;SDS011;44429;45.110;20.622;2022-11-15T04:40:23;0.05;;;0.03;;
58659;SDS011;44429;45.110;20.622;2022-11-15T04:42:49;2.38;;;0.38;;
58659;SDS011;44429;45.110;20.622;2022-11-15T04:45:15;1.02;;;0.40;;
58659;SDS011;44429;45.110;20.622;2022-11-15T04:47:44;0.40;;;0.20;;
58659;SDS011;44429;45.110;20.622;2022-11-15T04:50:11;2.17;;;1.00;;
58659;SDS011;44429;45.110;20.622;2022-11-15T04:52:40;0.75;;;0.40;;
58659;SDS011;44429;45.110;20.622;2022-11-15T04:55:07;0.90;;;0.32;;
58659;SDS011;44429;45.110;20.622;2022-11-15T04:57:33;0.95;;;0.32;;
58659;SDS011;44429;45.110;20.622;2022-11-15T04:59:59;1.08;;;0.35;;
58659;SDS011;44429;45.110;20.622;2022-11-15T05:02:25;0.20;;;0.10;;
58659;SDS011;44429;45.110;20.622;2022-11-15T05:05:11;3.92;;;0.82;;
58659;SDS011;44429;45.110;20.622;2022-11-15T05:07:38;0.65;;;0.28;;
58659;SDS011;44429;45.110;20.622;2022-11-15T05:10:04;0.57;;;0.38;;
58659;SDS011;44429;45.110;20.622;2022-11-15T05:12:30;0.90;;;0.30;;
58659;SDS011;44429;45.110;20.622;2022-11-15T05:14:56;1.08;;;0.20;;
58659;SDS011;44429;45.110;20.622;2022-11-15T05:17:22;0.50;;;0.20;;
58659;SDS011;44429;45.110;20.622;2022-11-15T05:19:48;0.38;;;0.15;;
58659;SDS011;44429;45.110;20.622;2022-11-15T05:22:14;1.00;;;0.22;;
58659;SDS011;44429;45.110;20.622;2022-11-15T05:24:40;0.52;;;0.20;;
58659;SDS011;44429;45.110;20.622;2022-11-15T05:27:06;1.52;;;0.47;;
58659;SDS011;44429;45.110;20.622;2022-11-15T05:29:32;1.88;;;0.32;;
58659;SDS011;44429;45.110;20.622;2022-11-15T05:31:59;3.42;;;1.00;;
58659;SDS011;44429;45.110;20.622;2022-11-15T05:34:25;16.90;;;7.28;;
58659;SDS011;44429;45.110;20.622;2022-11-15T05:36:51;12.00;;;4.30;;
58659;SDS011;44429;45.110;20.622;2022-11-15T05:39:18;3.55;;;1.95;;
58659;SDS011;44429;45.110;20.622;2022-11-15T05:41:44;2.03;;;1.05;;
58659;SDS011;44429;45.110;20.622;2022-11-15T05:44:13;1.30;;;0.73;;
58659;SDS011;44429;45.110;20.622;2022-11-15T05:46:41;1.45;;;0.65;;
58659;SDS011;44429;45.110;20.622;2022-11-15T05:49:09;1.20;;;0.55;;
58659;SDS011;44429;45.110;20.622;2022-11-15T05:51:35;0.65;;;0.22;;
58659;SDS011;44429;45.110;20.622;2022-11-15T05:54:02;0.47;;;0.30;;
58659;SDS011;44429;45.110;20.622;2022-11-15T05:56:28;1.60;;;0.68;;
58659;SDS011;44429;45.110;20.622;2022-11-15T05:58:54;2.22;;;0.82;;
58659;SDS011;44429;45.110;20.622;2022-11-15T06:01:21;1.60;;;0.47;;
58659;SDS011;44429;45.110;20.622;2022-11-15T06:03:47;1.85;;;1.10;;
58659;SDS011;44429;45.110;20.622;2022-11-15T06:06:13;1.23;;;0.73;;
58659;SDS011;44429;45.110;20.622;2022-11-15T06:08:40;0.73;;;0.30;;
58659;SDS011;44429;45.110;20.622;2022-11-15T06:11:06;1.85;;;0.68;;
58659;SDS011;44429;45.110;20.622;2022-11-15T06:13:33;0.73;;;0.20;;
58659;SDS011;44429;45.110;20.622;2022-11-15T06:15:59;0.68;;;0.28;;
58659;SDS011;44429;45.110;20.622;2022-11-15T06:18:25;1.27;;;0.85;;
58659;SDS011;44429;45.110;20.622;2022-11-15T06:20:51;1.08;;;0.45;;
58659;SDS011;44429;45.110;20.622;2022-11-15T06:23:18;1.60;;;0.55;;
58659;SDS011;44429;45.110;20.622;2022-11-15T06:25:44;1.20;;;0.50;;
58659;SDS011;44429;45.110;20.622;2022-11-15T06:28:10;4.40;;;0.90;;
58659;SDS011;44429;45.110;20.622;2022-11-15T06:30:36;1.02;;;0.50;;
58659;SDS011;44429;45.110;20.622;2022-11-15T06:33:03;3.78;;;1.20;;
58659;SDS011;44429;45.110;20.622;2022-11-15T06:35:30;0.95;;;0.73;;
58659;SDS011;44429;45.110;20.622;2022-11-15T06:37:59;0.63;;;0.28;;
58659;SDS011;44429;45.110;20.622;2022-11-15T06:40:27;1.65;;;0.55;;
58659;SDS011;44429;45.110;20.622;2022-11-15T06:42:57;1.05;;;0.50;;
58659;SDS011;44429;45.110;20.622;2022-11-15T06:45:23;3.67;;;1.33;;
58659;SDS011;44429;45.110;20.622;2022-11-15T06:47:49;0.90;;;0.20;;
58659;SDS011;44429;45.110;20.622;2022-11-15T06:50:15;0.75;;;0.30;;
58659;SDS011;44429;45.110;20.622;2022-11-15T06:52:41;3.10;;;1.10;;
58659;SDS011;44429;45.110;20.622;2022-11-15T06:55:07;10.88;;;3.42;;
58659;SDS011;44429;45.110;20.622;2022-11-15T06:57:34;1.70;;;0.60;;
58659;SDS011;44429;45.110;20.622;2022-11-15T07:00:00;0.63;;;0.25;;
58659;SDS011;44429;45.110;20.622;2022-11-15T07:02:26;1.65;;;0.65;;
58659;SDS011;44429;45.110;20.622;2022-11-15T07:04:52;0.52;;;0.32;;
58659;SDS011;44429;45.110;20.622;2022-11-15T07:07:18;0.75;;;0.30;;
58659;SDS011;44429;45.110;20.622;2022-11-15T07:09:44;5.10;;;0.93;;
58659;SDS011;44429;45.110;20.622;2022-11-15T07:12:10;4.32;;;0.77;;
58659;SDS011;44429;45.110;20.622;2022-11-15T07:14:37;1.00;;;0.47;;
58659;SDS011;44429;45.110;20.622;2022-11-15T07:17:03;0.82;;;0.28;;
58659;SDS011;44429;45.110;20.622;2022-11-15T07:19:30;3.03;;;0.35;;
58659;SDS011;44429;45.110;20.622;2022-11-15T07:21:56;4.65;;;1.27;;
58659;SDS011;44429;45.110;20.622;2022-11-15T07:24:22;0.77;;;0.43;;
58659;SDS011;44429;45.110;20.622;2022-11-15T07:26:48;1.52;;;0.40;;
58659;SDS011;44429;45.110;20.622;2022-11-15T07:29:14;5.30;;;1.85;;
58659;SDS011;44429;45.110;20.622;2022-11-15T07:31:40;1.67;;;0.65;;
58659;SDS011;44429;45.110;20.622;2022-11-15T07:34:06;1.25;;;0.65;;
58659;SDS011;44429;45.110;20.622;2022-11-15T07:36:33;1.23;;;0.40;;
58659;SDS011;44429;45.110;20.622;2022-11-15T07:38:59;2.65;;;1.08;;
58659;SDS011;44429;45.110;20.622;2022-11-15T07:41:25;6.43;;;2.42;;
58659;SDS011;44429;45.110;20.622;2022-11-15T07:43:51;4.65;;;1.80;;
58659;SDS011;44429;45.110;20.622;2022-11-15T07:46:17;3.70;;;0.98;;
58659;SDS011;44429;45.110;20.622;2022-11-15T07:48:44;0.90;;;0.32;;
58659;SDS011;44429;45.110;20.622;2022-11-15T07:51:11;1.27;;;0.60;;
58659;SDS011;44429;45.110;20.622;2022-11-15T07:53:37;1.17;;;0.50;;
58659;SDS011;44429;45.110;20.622;2022-11-15T07:56:05;0.90;;;0.70;;
58659;SDS011;44429;45.110;20.622;2022-11-15T07:58:32;2.80;;;0.98;;
58659;SDS011;44429;45.110;20.622;2022-11-15T08:01:01;4.18;;;1.00;;
58659;SDS011;44429;45.110;20.622;2022-11-15T08:03:27;13.85;;;1.98;;
58659;SDS011;44429;45.110;20.622;2022-11-15T08:05:53;4.78;;;1.90;;
58659;SDS011;44429;45.110;20.622;2022-11-15T08:08:19;3.58;;;1.35;;
58659;SDS011;44429;45.110;20.622;2022-11-15T08:10:45;6.00;;;2.08;;
58659;SDS011;44429;45.110;20.622;2022-11-15T08:13:12;11.80;;;2.50;;
58659;SDS011;44429;45.110;20.622;2022-11-15T08:15:38;14.27;;;5.20;;
58659;SDS011;44429;45.110;20.622;2022-11-15T08:18:05;10.60;;;2.95;;
58659;SDS011;44429;45.110;20.622;2022-11-15T08:20:32;19.13;;;6.25;;
58659;SDS011;44429;45.110;20.622;2022-11-15T08:23:00;7.97;;;5.03;;
58659;SDS011;44429;45.110;20.622;2022-11-15T08:25:27;4.90;;;1.92;;
58659;SDS011;44429;45.110;20.622;2022-11-15T08:27:54;4.13;;;2.13;;
58659;SDS011;44429;45.110;20.622;2022-11-15T08:30:21;1.98;;;0.70;;
58659;SDS011;44429;45.110;20.622;2022-11-15T08:32:48;3.40;;;1.45;;
58659;SDS011;44429;45.110;20.622;2022-11-15T08:35:14;8.85;;;1.20;;
58659;SDS011;44429;45.110;20.622;2022-11-15T08:37:40;3.67;;;1.33;;
58659;SDS011;44429;45.110;20.622;2022-11-15T08:40:06;8.50;;;2.33;;
58659;SDS011;44429;45.110;20.622;2022-11-15T08:42:32;4.60;;;1.45;;
58659;SDS011;44429;45.110;20.622;2022-11-15T08:44:58;6.65;;;2.83;;
58659;SDS011;44429;45.110;20.622;2022-11-15T08:47:25;11.05;;;3.47;;
58659;SDS011;44429;45.110;20.622;2022-11-15T08:49:51;5.70;;;2.47;;
58659;SDS011;44429;45.110;20.622;2022-11-15T08:52:17;3.92;;;2.42;;
58659;SDS011;44429;45.110;20.622;2022-11-15T08:54:43;2.70;;;1.00;;
58659;SDS011;44429;45.110;20.622;2022-11-15T08:57:09;10.63;;;3.90;;
58659;SDS011;44429;45.110;20.622;2022-11-15T08:59:36;15.68;;;5.10;;
58659;SDS011;44429;45.110;20.622;2022-11-15T09:02:02;21.75;;;7.75;;
58659;SDS011;44429;45.110;20.622;2022-11-15T09:04:28;4.57;;;1.73;;
58659;SDS011;44429;45.110;20.622;2022-11-15T09:06:54;3.08;;;1.65;;
58659;SDS011;44429;45.110;20.622;2022-11-15T09:09:20;6.60;;;1.48;;
58659;SDS011;44429;45.110;20.622;2022-11-15T09:11:46;3.38;;;1.13;;
58659;SDS011;44429;45.110;20.622;2022-11-15T09:14:12;1.00;;;0.63;;
58659;SDS011;44429;45.110;20.622;2022-11-15T09:16:38;1.00;;;0.65;;
58659;SDS011;44429;45.110;20.622;2022-11-15T09:19:04;4.25;;;2.28;;
58659;SDS011;44429;45.110;20.622;2022-11-15T09:21:31;3.45;;;0.68;;
58659;SDS011;44429;45.110;20.622;2022-11-15T09:23:57;1.90;;;0.77;;
58659;SDS011;44429;45.110;20.622;2022-11-15T09:26:23;3.20;;;1.20;;
58659;SDS011;44429;45.110;20.622;2022-11-15T09:28:50;1.55;;;0.45;;
58659;SDS011;44429;45.110;20.622;2022-11-15T09:31:16;2.97;;;1.40;;
58659;SDS011;44429;45.110;20.622;2022-11-15T09:33:45;1.02;;;0.40;;
58659;SDS011;44429;45.110;20.622;2022-11-15T09:36:11;4.40;;;0.88;;
58659;SDS011;44429;45.110;20.622;2022-11-15T09:38:37;1.45;;;0.50;;
58659;SDS011;44429;45.110;20.622;2022-11-15T09:51:30;1.55;;;0.57;;
58659;SDS011;44429;45.110;20.622;2022-11-15T09:56:26;1.77;;;0.70;;
58659;SDS011;44429;45.110;20.622;2022-11-15T10:02:08;2.60;;;0.98;;
58659;SDS011;44429;45.110;20.622;2022-11-15T10:04:10;3.42;;;1.17;;
58659;SDS011;44429;45.110;20.622;2022-11-15T10:06:38;5.32;;;1.15;;
58659;SDS011;44429;45.110;20.622;2022-11-15T10:09:12;2.80;;;0.77;;
58659;SDS011;44429;45.110;20.622;2022-11-15T10:11:39;1.58;;;0.60;;
58659;SDS011;44429;45.110;20.622;2022-11-15T10:14:19;4.65;;;0.70;;
58659;SDS011;44429;45.110;20.622;2022-11-15T10:24:35;3.95;;;1.48;;
58659;SDS011;44429;45.110;20.622;2022-11-15T10:27:07;9.13;;;1.23;;
58659;SDS011;44429;45.110;20.622;2022-11-15T10:29:33;2.60;;;1.05;;
58659;SDS011;44429;45.110;20.622;2022-11-15T10:31:59;26.15;;;7.53;;
58659;SDS011;44429;45.110;20.622;2022-11-15T10:34:25;4.80;;;1.77;;
58659;SDS011;44429;45.110;20.622;2022-11-15T10:36:58;6.85;;;2.70;;
58659;SDS011;44429;45.110;20.622;2022-11-15T10:39:25;6.70;;;3.03;;
58659;SDS011;44429;45.110;20.622;2022-11-15T10:41:52;5.45;;;2.00;;
58659;SDS011;44429;45.110;20.622;2022-11-15T10:44:20;9.25;;;3.20;;
58659;SDS011;44429;45.110;20.622;2022-11-15T10:46:50;5.43;;;1.67;;
58659;SDS011;44429;45.110;20.622;2022-11-15T10:49:30;8.73;;;2.70;;
58659;SDS011;44429;45.110;20.622;2022-11-15T10:52:04;3.42;;;1.25;;
58659;SDS011;44429;45.110;20.622;2022-11-15T10:54:40;3.25;;;1.08;;
58659;SDS011;44429;45.110;20.622;2022-11-15T10:57:10;7.68;;;2.88;;
58659;SDS011;44429;45.110;20.622;2022-11-15T10:59:38;7.43;;;2.10;;
58659;SDS011;44429;45.110;20.622;2022-11-15T11:04:50;4.80;;;1.17;;
58659;SDS011;44429;45.110;20.622;2022-11-15T11:07:20;6.47;;;2.55;;
58659;SDS011;44429;45.110;20.622;2022-11-15T11:09:47;2.65;;;0.88;;
58659;SDS011;44429;45.110;20.622;2022-11-15T11:12:26;6.40;;;1.77;;
58659;SDS011;44429;45.110;20.622;2022-11-15T11:14:53;9.70;;;2.17;;
58659;SDS011;44429;45.110;20.622;2022-11-15T11:25:18;10.32;;;4.03;;
58659;SDS011;44429;45.110;20.622;2022-11-15T11:27:56;9.23;;;2.20;;
58659;SDS011;44429;45.110;20.622;2022-11-15T11:30:24;2.25;;;0.75;;
58659;SDS011;44429;45.110;20.622;2022-11-15T11:40:44;8.27;;;2.22;;
58659;SDS011;44429;45.110;20.622;2022-11-15T11:50:58;4.45;;;1.25;;
58659;SDS011;44429;45.110;20.622;2022-11-15T11:53:30;2.20;;;0.60;;
58659;SDS011;44429;45.110;20.622;2022-11-15T11:58:37;2.10;;;1.38;;
58659;SDS011;44429;45.110;20.622;2022-11-15T12:04:10;3.05;;;1.73;;
58659;SDS011;44429;45.110;20.622;2022-11-15T12:12:21;3.72;;;1.23;;
58659;SDS011;44429;45.110;20.622;2022-11-15T12:14:53;2.88;;;1.20;;
58659;SDS011;44429;45.110;20.622;2022-11-15T12:17:26;4.68;;;0.85;;
58659;SDS011;44429;45.110;20.622;2022-11-15T12:19:56;6.80;;;1.73;;
58659;SDS011;44429;45.110;20.622;2022-11-15T12:23:08;7.30;;;2.53;;
58659;SDS011;44429;45.110;20.622;2022-11-15T12:27:46;5.28;;;2.35;;
58659;SDS011;44429;45.110;20.622;2022-11-15T12:30:17;4.18;;;1.05;;
58659;SDS011;44429;45.110;20.622;2022-11-15T12:32:59;4.22;;;1.15;;
58659;SDS011;44429;45.110;20.622;2022-11-15T12:35:27;19.02;;;5.55;;
58659;SDS011;44429;45.110;20.622;2022-11-15T12:37:55;5.10;;;1.67;;
58659;SDS011;44429;45.110;20.622;2022-11-15T12:40:23;7.18;;;2.03;;
58659;SDS011;44429;45.110;20.622;2022-11-15T12:45:35;8.65;;;3.80;;
58659;SDS011;44429;45.110;20.622;2022-11-15T12:58:41;9.13;;;3.72;;
58659;SDS011;44429;45.110;20.622;2022-11-15T13:01:08;7.28;;;1.58;;
58659;SDS011;44429;45.110;20.622;2022-11-15T13:03:34;21.10;;;6.68;;
58659;SDS011;44429;45.110;20.622;2022-11-15T13:06:02;25.63;;;8.25;;
58659;SDS011;44429;45.110;20.622;2022-11-15T13:09:02;8.30;;;3.33;;
58659;SDS011;44429;45.110;20.622;2022-11-15T13:13:46;10.40;;;4.28;;
58659;SDS011;44429;45.110;20.622;2022-11-15T13:16:17;9.07;;;2.83;;
58659;SDS011;44429;45.110;20.622;2022-11-15T13:18:44;15.07;;;3.47;;
58659;SDS011;44429;45.110;20.622;2022-11-15T13:21:22;18.75;;;7.28;;
58659;SDS011;44429;45.110;20.622;2022-11-15T13:24:15;40.13;;;6.88;;
58659;SDS011;44429;45.110;20.622;2022-11-15T13:26:41;36.35;;;10.63;;
58659;SDS011;44429;45.110;20.622;2022-11-15T13:29:14;31.25;;;9.30;;
58659;SDS011;44429;45.110;20.622;2022-11-15T13:31:42;23.13;;;9.35;;
58659;SDS011;44429;45.110;20.622;2022-11-15T13:36:43;21.55;;;7.72;;
58659;SDS011;44429;45.110;20.622;2022-11-15T13:39:29;17.70;;;5.55;;
58659;SDS011;44429;45.110;20.622;2022-11-15T13:41:56;10.45;;;2.50;;
58659;SDS011;44429;45.110;20.622;2022-11-15T13:44:27;8.32;;;3.13;;
58659;SDS011;44429;45.110;20.622;2022-11-15T13:47:02;7.07;;;1.38;;
58659;SDS011;44429;45.110;20.622;2022-11-15T13:49:30;3.78;;;2.20;;
58659;SDS011;44429;45.110;20.622;2022-11-15T13:51:56;9.35;;;2.63;;
58659;SDS011;44429;45.110;20.622;2022-11-15T13:59:27;1.52;;;0.68;;
58659;SDS011;44429;45.110;20.622;2022-11-15T14:01:54;4.88;;;1.70;;
58659;SDS011;44429;45.110;20.622;2022-11-15T14:04:22;7.28;;;2.40;;
58659;SDS011;44429;45.110;20.622;2022-11-15T14:06:49;10.23;;;2.85;;
58659;SDS011;44429;45.110;20.622;2022-11-15T14:09:24;7.22;;;1.58;;
58659;SDS011;44429;45.110;20.622;2022-11-15T14:11:52;6.10;;;1.45;;
58659;SDS011;44429;45.110;20.622;2022-11-15T14:14:19;6.80;;;2.53;;
58659;SDS011;44429;45.110;20.622;2022-11-15T14:16:47;3.28;;;1.45;;
58659;SDS011;44429;45.110;20.622;2022-11-15T14:24:36;4.82;;;0.80;;
58659;SDS011;44429;45.110;20.622;2022-11-15T14:29:47;2.65;;;1.05;;
58659;SDS011;44429;45.110;20.622;2022-11-15T14:34:46;4.57;;;0.95;;
58659;SDS011;44429;45.110;20.622;2022-11-15T14:37:16;3.35;;;1.20;;
58659;SDS011;44429;45.110;20.622;2022-11-15T14:39:44;4.03;;;1.15;;
58659;SDS011;44429;45.110;20.622;2022-11-15T14:42:10;4.88;;;1.42;;
58659;SDS011;44429;45.110;20.622;2022-11-15T14:44:36;6.88;;;2.10;;
58659;SDS011;44429;45.110;20.622;2022-11-15T14:47:02;9.40;;;2.40;;
58659;SDS011;44429;45.110;20.622;2022-11-15T14:49:28;14.52;;;4.93;;
58659;SDS011;44429;45.110;20.622;2022-11-15T14:51:54;9.13;;;3.03;;
58659;SDS011;44429;45.110;20.622;2022-11-15T14:54:20;6.60;;;2.17;;
58659;SDS011;44429;45.110;20.622;2022-11-15T14:56:46;4.35;;;1.50;;
58659;SDS011;44429;45.110;20.622;2022-11-15T14:59:12;7.43;;;2.17;;
58659;SDS011;44429;45.110;20.622;2022-11-15T15:01:39;10.38;;;2.78;;
58659;SDS011;44429;45.110;20.622;2022-11-15T15:04:05;6.78;;;1.77;;
58659;SDS011;44429;45.110;20.622;2022-11-15T15:06:31;7.65;;;1.92;;
58659;SDS011;44429;45.110;20.622;2022-11-15T15:08:57;6.97;;;1.85;;
58659;SDS011;44429;45.110;20.622;2022-11-15T15:11:24;8.77;;;1.50;;
58659;SDS011;44429;45.110;20.622;2022-11-15T15:13:51;11.23;;;3.85;;
58659;SDS011;44429;45.110;20.622;2022-11-15T15:16:18;4.18;;;1.30;;
58659;SDS011;44429;45.110;20.622;2022-11-15T15:18:44;13.60;;;2.67;;
58659;SDS011;44429;45.110;20.622;2022-11-15T15:21:20;8.75;;;3.55;;
58659;SDS011;44429;45.110;20.622;2022-11-15T15:23:47;10.82;;;3.20;;
58659;SDS011;44429;45.110;20.622;2022-11-15T15:26:14;17.27;;;4.07;;
58659;SDS011;44429;45.110;20.622;2022-11-15T15:28:40;7.28;;;2.22;;
58659;SDS011;44429;45.110;20.622;2022-11-15T15:31:07;8.25;;;1.70;;
58659;SDS011;44429;45.110;20.622;2022-11-15T15:33:33;5.10;;;1.83;;
58659;SDS011;44429;45.110;20.622;2022-11-15T15:35:59;8.85;;;2.78;;
58659;SDS011;44429;45.110;20.622;2022-11-15T15:38:25;18.77;;;3.42;;
58659;SDS011;44429;45.110;20.622;2022-11-15T15:40:51;12.18;;;3.83;;
58659;SDS011;44429;45.110;20.622;2022-11-15T15:43:18;7.97;;;1.98;;
58659;SDS011;44429;45.110;20.622;2022-11-15T15:45:44;8.93;;;2.67;;
58659;SDS011;44429;45.110;20.622;2022-11-15T15:48:11;10.20;;;2.45;;
58659;SDS011;44429;45.110;20.622;2022-11-15T15:50:38;12.85;;;2.83;;
58659;SDS011;44429;45.110;20.622;2022-11-15T15:53:04;14.68;;;4.55;;
58659;SDS011;44429;45.110;20.622;2022-11-15T15:55:31;11.88;;;4.10;;
58659;SDS011;44429;45.110;20.622;2022-11-15T15:57:57;17.40;;;4.38;;
58659;SDS011;44429;45.110;20.622;2022-11-15T16:00:24;31.08;;;5.30;;
58659;SDS011;44429;45.110;20.622;2022-11-15T16:02:50;5.93;;;2.10;;
58659;SDS011;44429;45.110;20.622;2022-11-15T16:05:16;6.68;;;2.30;;
58659;SDS011;44429;45.110;20.622;2022-11-15T16:07:43;6.10;;;2.45;;
58659;SDS011;44429;45.110;20.622;2022-11-15T16:10:30;7.90;;;2.72;;
58659;SDS011;44429;45.110;20.622;2022-11-15T16:12:57;10.38;;;2.30;;
58659;SDS011;44429;45.110;20.622;2022-11-15T16:15:24;4.22;;;1.30;;
58659;SDS011;44429;45.110;20.622;2022-11-15T16:18:00;6.28;;;2.00;;
58659;SDS011;44429;45.110;20.622;2022-11-15T16:20:39;7.10;;;2.33;;
58659;SDS011;44429;45.110;20.622;2022-11-15T16:23:08;15.75;;;2.75;;
58659;SDS011;44429;45.110;20.622;2022-11-15T16:28:49;6.55;;;1.95;;
58659;SDS011;44429;45.110;20.622;2022-11-15T16:31:08;7.80;;;1.63;;
58659;SDS011;44429;45.110;20.622;2022-11-15T16:33:34;8.50;;;2.28;;
58659;SDS011;44429;45.110;20.622;2022-11-15T16:36:01;4.78;;;1.80;;
58659;SDS011;44429;45.110;20.622;2022-11-15T16:38:28;9.32;;;2.33;;
58659;SDS011;44429;45.110;20.622;2022-11-15T16:40:54;6.90;;;1.70;;
58659;SDS011;44429;45.110;20.622;2022-11-15T16:43:20;7.13;;;1.85;;
58659;SDS011;44429;45.110;20.622;2022-11-15T16:45:46;9.75;;;3.13;;
58659;SDS011;44429;45.110;20.622;2022-11-15T16:48:22;7.53;;;2.13;;
58659;SDS011;44429;45.110;20.622;2022-11-15T16:50:49;3.17;;;1.25;;
58659;SDS011;44429;45.110;20.622;2022-11-15T16:53:15;7.78;;;2.70;;
58659;SDS011;44429;45.110;20.622;2022-11-15T16:55:41;7.07;;;1.65;;
58659;SDS011;44429;45.110;20.622;2022-11-15T16:58:08;6.05;;;1.45;;